Terminal Aerodrome Forecast
Issued by NWS

Home | Current Version | Previous Version | Text Only | Print | Product List | Glossary On
Versions: 1 2 3 4 5 6 7 8 9 10 11 12 13 14 15
000
FTUS45 KABQ 061133
TAFLVS
TAF
KLVS 061133Z 0612/0712 01010KT P6SM SCT150 BKN300
     FM061800 05009KT P6SM FEW050 FEW150
     FM062000 04012KT P6SM VCTS SCT050CB BKN120
     FM070000 05011KT P6SM VCSH SCT050 BKN090
     FM070800 05009KT 5SM -SHRA BR OVC025=

USA.gov is the U.S. government's official web portal to all federal, state and local government web resources and services.